Terminal Aerodrome Forecast
Issued by NWS Louisville, KY

Home | Current Version | Previous Version | Text Only | Print | Product List | Glossary On
Versions: 1 2 3 4 5 6 7 8 9 10 11 12 13 14 15 16 17 18 19 20 21 22
738
FTUS43 KLMK 161133
TAFBWG
TAF
KBWG 161133Z 1612/1712 10004KT 1/4SM FG VV002
     FM161600 16006KT 4SM BR BKN003
     FM161800 16007KT 4SM BR BKN010
     FM162100 18008KT P6SM VCSH BKN030
     FM170200 19010KT 4SM -SHRA VCTS BKN015CB
     FM170500 20012G18KT 2SM SHRA VCTS BKN008CB=

USA.gov is the U.S. government's official web portal to all federal, state and local government web resources and services.